Time;durP1;ratioP1;P1;durP2;ratioP2;P2;SDS_P1;SDS_P2;PMS_P1;PMS_P2;Temp;Humidity;BMP_temperature;BMP_pressure;BME280_temperature;BME280_humidity;BME280_pressure;Samples;Min_cycle;Max_cycle;Signal;HPM_P1;HPM_P2
2022/09/08 00:00:38;;;;;;;11.15;5.13;;;14.10;86.80;;;;;;5056039;28;20227;-84
2022/09/08 00:03:30;;;;;;;10.57;5.93;;;14.10;87.10;;;;;;5057685;28;20948;-84
2022/09/08 00:06:19;;;;;;;10.82;6.10;;;14.00;88.50;;;;;;5057531;28;20746;-84
2022/09/08 00:09:08;;;;;;;9.32;5.40;;;14.00;88.80;;;;;;5058727;28;20302;-84
2022/09/08 00:11:56;;;;;;;12.18;5.82;;;13.80;89.70;;;;;;5060454;28;20227;-84
2022/09/08 00:14:46;;;;;;;13.50;5.05;;;13.80;90.30;;;;;;5067223;28;20593;-84
2022/09/08 00:17:35;;;;;;;7.53;4.72;;;13.70;90.60;;;;;;5061568;28;20221;-84
2022/09/08 00:20:23;;;;;;;9.15;4.75;;;13.80;90.40;;;;;;5062884;28;20225;-84
2022/09/08 00:23:12;;;;;;;13.23;5.60;;;13.70;90.30;;;;;;5060863;28;20297;-84
2022/09/08 00:26:00;;;;;;;10.07;5.13;;;13.80;90.20;;;;;;5061997;28;20381;-84
2022/09/08 00:28:50;;;;;;;8.45;4.63;;;13.70;90.40;;;;;;5088254;27;20633;-84
2022/09/08 00:31:41;;;;;;;9.52;5.15;;;13.80;90.20;;;;;;5056818;28;20362;-83
2022/09/08 00:34:29;;;;;;;9.80;5.03;;;13.70;90.70;;;;;;5050345;28;20729;-84
2022/09/08 00:37:18;;;;;;;12.30;5.25;;;13.70;89.80;;;;;;5084526;28;20247;-84
2022/09/08 00:40:09;;;;;;;9.35;5.10;;;13.60;90.20;;;;;;5059642;28;20224;-85
2022/09/08 00:43:01;;;;;;;9.68;4.60;;;13.80;90.00;;;;;;5071576;28;20315;-85
2022/09/08 00:45:50;;;;;;;9.85;5.00;;;13.80;89.30;;;;;;5063582;28;20337;-84
2022/09/08 00:48:43;;;;;;;8.27;4.63;;;13.80;88.90;;;;;;5062819;28;20299;-85
2022/09/08 00:51:32;;;;;;;12.20;5.15;;;13.80;89.70;;;;;;5071431;28;20216;-85
2022/09/08 00:54:21;;;;;;;8.45;4.90;;;13.90;89.60;;;;;;5063506;28;20373;-85
2022/09/08 00:57:10;;;;;;;11.20;5.22;;;13.80;89.20;;;;;;5068205;28;20257;-85
2022/09/08 00:59:58;;;;;;;10.63;4.65;;;13.70;90.00;;;;;;5081903;28;20277;-84
2022/09/08 01:02:48;;;;;;;11.60;4.78;;;13.70;90.30;;;;;;5103606;28;20241;-86
2022/09/08 01:05:49;;;;;;;11.35;4.90;;;13.80;90.70;;;;;;5069316;28;21482;-85
2022/09/08 01:15:03;;;;;;;8.38;4.53;;;13.60;91.10;;;;;;5064373;28;20221;-84
2022/09/08 01:17:54;;;;;;;8.88;4.68;;;13.50;90.90;;;;;;5060082;28;20230;-85
2022/09/08 01:20:51;;;;;;;12.63;4.60;;;13.60;91.30;;;;;;5060400;28;20744;-85
2022/09/08 01:24:20;;;;;;;14.05;5.22;;;13.50;91.40;;;;;;5063724;28;20304;-85
2022/09/08 01:27:22;;;;;;;10.25;4.72;;;13.40;91.40;;;;;;5061345;28;20216;-85
2022/09/08 01:30:11;;;;;;;11.75;4.63;;;13.40;91.50;;;;;;5059306;28;20307;-84
2022/09/08 01:33:01;;;;;;;9.80;4.95;;;13.50;91.40;;;;;;5058907;28;20245;-85
2022/09/08 01:35:49;;;;;;;11.45;5.32;;;13.40;92.10;;;;;;5059964;28;20307;-84
2022/09/08 01:38:38;;;;;;;7.63;4.30;;;13.30;92.30;;;;;;5066764;28;20224;-85
2022/09/08 01:41:27;;;;;;;8.82;4.60;;;13.30;93.00;;;;;;5086924;28;20239;-83
2022/09/08 01:44:16;;;;;;;9.77;4.45;;;13.30;92.30;;;;;;5068590;28;20240;-84
2022/09/08 01:47:05;;;;;;;7.47;4.15;;;13.30;92.70;;;;;;5057612;28;20250;-85
2022/09/08 01:49:53;;;;;;;8.77;4.88;;;13.30;92.70;;;;;;5065339;28;20230;-83
2022/09/08 01:52:42;;;;;;;9.55;4.28;;;13.20;92.80;;;;;;5061203;28;20219;-84
2022/09/08 01:55:31;;;;;;;8.25;4.78;;;13.30;92.60;;;;;;5061984;28;20647;-84
2022/09/08 01:58:19;;;;;;;9.05;4.40;;;13.40;92.50;;;;;;5055864;28;20216;-82
2022/09/08 02:01:09;;;;;;;8.52;4.13;;;13.10;93.10;;;;;;5058817;28;20314;-82
2022/09/08 02:03:58;;;;;;;10.55;4.97;;;13.10;93.20;;;;;;5053886;28;20702;-83
2022/09/08 02:06:47;;;;;;;9.65;4.22;;;13.10;93.60;;;;;;5063885;28;20725;-82
2022/09/08 02:09:35;;;;;;;12.10;4.70;;;13.10;93.20;;;;;;5062173;28;20369;-83
2022/09/08 02:12:24;;;;;;;9.13;4.30;;;13.10;93.50;;;;;;5058456;28;20354;-82
2022/09/08 02:15:12;;;;;;;7.00;4.50;;;13.10;93.50;;;;;;5055172;28;20224;-82
2022/09/08 02:18:02;;;;;;;7.43;4.32;;;13.10;93.40;;;;;;5059765;28;20242;-82
2022/09/08 02:21:02;;;;;;;8.10;4.35;;;13.10;94.00;;;;;;5062940;28;20220;-82
2022/09/08 02:23:51;;;;;;;10.35;4.38;;;13.10;93.80;;;;;;5062201;28;20588;-82
2022/09/08 02:26:40;;;;;;;10.23;4.50;;;12.90;94.00;;;;;;5059535;28;20324;-82
2022/09/08 02:29:29;;;;;;;6.75;4.15;;;12.90;93.90;;;;;;5058161;28;20257;-83
2022/09/08 02:32:17;;;;;;;8.05;4.20;;;12.90;93.80;;;;;;5062904;28;20358;-81
2022/09/08 02:35:08;;;;;;;7.88;4.32;;;12.80;93.80;;;;;;5062981;28;20267;-81
2022/09/08 02:37:57;;;;;;;5.68;3.60;;;12.90;94.20;;;;;;5057539;28;20311;-81
2022/09/08 02:40:45;;;;;;;9.68;4.30;;;13.00;94.00;;;;;;5061085;28;20264;-82
2022/09/08 02:43:34;;;;;;;7.80;4.15;;;13.10;94.00;;;;;;5060811;28;20315;-81
2022/09/08 02:46:24;;;;;;;8.98;4.18;;;13.00;94.40;;;;;;5058897;28;20236;-81
2022/09/08 02:49:13;;;;;;;7.32;3.95;;;12.90;94.80;;;;;;5065412;28;20247;-82
2022/09/08 02:52:03;;;;;;;6.75;3.70;;;12.80;94.50;;;;;;5066923;28;20376;-82
2022/09/08 02:54:52;;;;;;;7.38;4.30;;;12.60;94.50;;;;;;5060974;28;20216;-83
2022/09/08 02:57:40;;;;;;;8.27;4.07;;;12.50;95.20;;;;;;5070712;28;20224;-83
2022/09/08 03:00:32;;;;;;;9.60;4.18;;;12.70;95.20;;;;;;5054765;28;20277;-82
2022/09/08 03:03:21;;;;;;;6.18;3.85;;;12.70;95.10;;;;;;5055726;28;20759;-82
2022/09/08 03:06:10;;;;;;;12.68;4.28;;;12.70;95.30;;;;;;5059999;28;20229;-82
2022/09/08 03:09:00;;;;;;;8.38;4.00;;;12.50;95.10;;;;;;5061645;28;20584;-83
2022/09/08 03:11:49;;;;;;;9.43;4.10;;;12.50;95.40;;;;;;5063827;28;20215;-83
2022/09/08 03:14:37;;;;;;;6.00;4.00;;;12.50;95.30;;;;;;5079713;28;20861;-83
2022/09/08 03:17:26;;;;;;;8.88;4.10;;;12.50;96.00;;;;;;5058506;28;20258;-82
2022/09/08 03:20:15;;;;;;;7.22;3.97;;;12.30;96.00;;;;;;5058612;28;20316;-82
2022/09/08 03:23:04;;;;;;;8.32;4.45;;;12.40;96.40;;;;;;5069285;28;20239;-82
2022/09/08 03:25:54;;;;;;;9.38;4.40;;;12.40;96.40;;;;;;5062491;28;20251;-84
2022/09/08 03:28:43;;;;;;;8.70;3.80;;;12.40;96.90;;;;;;5065157;28;20292;-84
2022/09/08 03:31:32;;;;;;;6.68;3.88;;;12.60;96.20;;;;;;5064323;28;20361;-83
2022/09/08 03:34:20;;;;;;;11.77;4.43;;;12.60;96.90;;;;;;5069285;28;20228;-84
2022/09/08 03:37:09;;;;;;;7.03;3.53;;;12.60;96.10;;;;;;5064278;28;20701;-84
2022/09/08 03:39:58;;;;;;;7.50;3.42;;;12.50;96.70;;;;;;5060763;28;20300;-84
2022/09/08 03:42:48;;;;;;;8.43;4.22;;;12.50;96.90;;;;;;5081573;28;20228;-84
2022/09/08 03:45:37;;;;;;;9.88;3.85;;;12.40;97.30;;;;;;5090912;28;20324;-83
2022/09/08 03:48:25;;;;;;;8.15;4.22;;;12.30;97.60;;;;;;5066691;28;20217;-83
2022/09/08 03:51:16;;;;;;;7.03;3.95;;;12.30;97.50;;;;;;5068436;28;20217;-83
2022/09/08 03:57:11;;;;;;;8.95;4.22;;;12.30;97.80;;;;;;5063552;28;20231;-84
2022/09/08 04:00:02;;;;;;;6.75;4.25;;;12.20;98.10;;;;;;5087773;28;20223;-84
2022/09/08 04:02:59;;;;;;;11.38;4.35;;;12.20;98.50;;;;;;5060220;28;20225;-84
2022/09/08 04:05:48;;;;;;;6.55;4.07;;;12.20;98.80;;;;;;5058416;28;20230;-83
2022/09/08 04:08:36;;;;;;;8.40;4.35;;;12.10;98.80;;;;;;5061132;28;20208;-82
2022/09/08 04:11:25;;;;;;;7.60;3.97;;;12.10;99.00;;;;;;5062744;28;20734;-82
2022/09/08 04:14:14;;;;;;;7.55;3.90;;;12.20;99.10;;;;;;5060473;28;20285;-83
2022/09/08 04:17:04;;;;;;;10.55;4.43;;;12.20;99.10;;;;;;5060007;28;20604;-83
2022/09/08 04:19:53;;;;;;;9.57;4.25;;;12.10;99.40;;;;;;5089656;27;20320;-83
2022/09/08 04:22:43;;;;;;;6.97;4.20;;;12.20;99.10;;;;;;5063671;28;20988;-84
2022/09/08 04:25:32;;;;;;;11.23;4.50;;;12.20;99.90;;;;;;5056659;28;20278;-83
2022/09/08 04:28:20;;;;;;;9.38;4.70;;;12.20;99.60;;;;;;5066093;28;20240;-85
2022/09/08 04:31:12;;;;;;;5.45;3.85;;;12.20;99.90;;;;;;5067303;28;20224;-84
2022/09/08 04:34:02;;;;;;;10.30;3.95;;;12.10;99.90;;;;;;5059715;28;20522;-83
2022/09/08 04:36:52;;;;;;;7.95;4.00;;;12.10;99.90;;;;;;5056624;28;20299;-83
2022/09/08 04:39:40;;;;;;;8.48;3.78;;;12.10;99.90;;;;;;5072689;28;20307;-83
2022/09/08 04:42:30;;;;;;;11.48;4.15;;;12.20;99.90;;;;;;5070488;28;20224;-83
2022/09/08 04:45:19;;;;;;;9.35;3.83;;;12.20;99.90;;;;;;5059048;28;20305;-83
2022/09/08 04:48:08;;;;;;;13.50;4.22;;;12.10;99.90;;;;;;5062191;28;20326;-83
2022/09/08 04:50:58;;;;;;;7.25;3.58;;;12.10;99.90;;;;;;5057863;28;20659;-83
2022/09/08 04:53:47;;;;;;;9.50;3.78;;;12.10;99.90;;;;;;5060804;28;20235;-82
2022/09/08 04:56:37;;;;;;;10.82;4.57;;;12.30;99.90;;;;;;5061274;28;20220;-83
2022/09/08 04:59:27;;;;;;;8.02;3.70;;;12.30;99.70;;;;;;5060880;28;20225;-82
2022/09/08 05:02:16;;;;;;;7.38;3.92;;;12.40;99.90;;;;;;5059509;28;20236;-83
2022/09/08 05:05:05;;;;;;;6.57;3.70;;;12.40;99.40;;;;;;5058966;28;20231;-83
2022/09/08 05:07:55;;;;;;;10.35;4.18;;;12.40;99.50;;;;;;5069219;28;20219;-82
2022/09/08 05:10:43;;;;;;;14.02;4.20;;;12.50;99.80;;;;;;5060863;28;20236;-82
2022/09/08 05:13:32;;;;;;;13.23;5.53;;;12.40;99.90;;;;;;5066384;28;20212;-82
2022/09/08 05:16:23;;;;;;;9.38;3.97;;;12.60;99.60;;;;;;5063746;28;20335;-82
2022/09/08 05:19:12;;;;;;;7.75;3.97;;;12.70;99.10;;;;;;5061996;28;20304;-82
2022/09/08 05:22:01;;;;;;;9.07;3.80;;;12.80;98.90;;;;;;5058054;28;20261;-81
2022/09/08 05:24:52;;;;;;;9.15;3.90;;;13.00;98.40;;;;;;5065807;28;20308;-83
2022/09/08 05:27:41;;;;;;;9.95;4.28;;;13.00;97.20;;;;;;5060769;28;20224;-82
2022/09/08 05:30:30;;;;;;;5.63;3.60;;;13.10;97.60;;;;;;5062518;28;20220;-81
2022/09/08 05:33:18;;;;;;;7.50;4.35;;;13.10;97.20;;;;;;5063326;28;20224;-80
2022/09/08 05:36:11;;;;;;;10.48;3.72;;;13.20;97.80;;;;;;5051572;28;20228;-82
2022/09/08 05:39:01;;;;;;;10.18;4.05;;;13.20;97.60;;;;;;5057767;28;20244;-83
2022/09/08 05:41:51;;;;;;;7.22;4.30;;;13.30;96.90;;;;;;5060575;28;20246;-84
2022/09/08 05:44:39;;;;;;;9.15;3.92;;;13.50;95.90;;;;;;5086108;28;20246;-85
2022/09/08 05:47:28;;;;;;;6.35;3.67;;;13.70;96.60;;;;;;5064084;28;20314;-84
2022/09/08 05:50:17;;;;;;;12.30;3.85;;;13.70;95.30;;;;;;5088199;27;20915;-84
2022/09/08 05:53:06;;;;;;;12.60;4.10;;;13.80;95.40;;;;;;5058900;28;20217;-84
2022/09/08 05:55:59;;;;;;;8.02;3.85;;;13.70;96.50;;;;;;5054728;28;20296;-84
2022/09/08 05:58:54;;;;;;;5.15;3.65;;;13.90;96.60;;;;;;5073147;28;20244;-83
2022/09/08 06:01:45;;;;;;;10.82;3.88;;;14.00;95.30;;;;;;5063509;28;20228;-84
2022/09/08 06:04:34;;;;;;;12.27;4.25;;;13.90;95.90;;;;;;5060836;28;20228;-84
2022/09/08 06:07:24;;;;;;;11.57;4.18;;;13.90;96.20;;;;;;5057713;28;20228;-83
2022/09/08 06:10:12;;;;;;;10.05;3.88;;;14.00;96.00;;;;;;5058061;28;20785;-83
2022/09/08 06:13:01;;;;;;;9.60;3.72;;;13.90;96.10;;;;;;5058933;28;20220;-83
2022/09/08 06:15:51;;;;;;;11.43;4.22;;;13.90;96.50;;;;;;5080279;28;20228;-84
2022/09/08 06:18:41;;;;;;;10.80;3.50;;;14.10;96.30;;;;;;5085700;27;20302;-84
2022/09/08 06:21:32;;;;;;;9.25;3.83;;;14.10;95.90;;;;;;5058749;28;20228;-84
2022/09/08 06:24:20;;;;;;;12.70;3.80;;;14.10;96.60;;;;;;5077588;28;20228;-83
2022/09/08 06:27:14;;;;;;;7.63;3.42;;;14.00;96.10;;;;;;5058657;28;20278;-83
2022/09/08 06:30:08;;;;;;;9.43;3.80;;;14.10;95.50;;;;;;5087205;28;20225;-85
2022/09/08 06:33:01;;;;;;;7.88;3.97;;;14.30;96.10;;;;;;5085243;28;20203;-84
2022/09/08 06:35:58;;;;;;;10.55;3.85;;;14.30;95.80;;;;;;5064302;28;20228;-84
2022/09/08 06:38:53;;;;;;;13.13;3.75;;;14.30;95.00;;;;;;5066843;28;20762;-83
2022/09/08 06:41:46;;;;;;;10.73;3.78;;;14.40;95.00;;;;;;5056934;28;20346;-84
2022/09/08 06:44:38;;;;;;;7.85;3.78;;;14.60;94.20;;;;;;5056911;28;20881;-84
2022/09/08 06:47:38;;;;;;;12.98;3.72;;;14.70;94.20;;;;;;5061134;28;20587;-82
2022/09/08 06:50:33;;;;;;;6.30;3.42;;;14.90;93.50;;;;;;5060169;28;20304;-83
2022/09/08 06:53:25;;;;;;;5.53;3.38;;;15.00;94.20;;;;;;5058715;28;20232;-83
2022/09/08 06:56:25;;;;;;;8.27;3.45;;;15.30;93.40;;;;;;5057376;28;20221;-83
2022/09/08 06:59:48;;;;;;;9.93;3.50;;;15.40;92.40;;;;;;5081912;28;20223;-82
2022/09/08 07:02:50;;;;;;;8.40;3.40;;;15.60;92.10;;;;;;5069136;28;20736;-82
2022/09/08 07:05:57;;;;;;;11.70;3.45;;;15.80;91.10;;;;;;5054599;28;20220;-82
2022/09/08 07:09:01;;;;;;;6.07;3.08;;;16.10;91.00;;;;;;5055997;28;20220;-82
2022/09/08 07:12:04;;;;;;;11.95;3.75;;;16.50;90.30;;;;;;5056551;28;20248;-84
2022/09/08 07:15:25;;;;;;;9.32;3.22;;;16.80;87.00;;;;;;5052842;28;20220;-84
2022/09/08 07:18:21;;;;;;;8.15;2.92;;;17.10;88.60;;;;;;5045163;28;20232;-85
2022/09/08 07:21:21;;;;;;;9.15;3.30;;;17.30;85.00;;;;;;5089802;28;20240;-85
2022/09/08 07:24:14;;;;;;;6.65;2.90;;;17.40;85.40;;;;;;5069295;28;20231;-85
2022/09/08 07:27:07;;;;;;;9.80;2.95;;;17.70;85.20;;;;;;5059062;28;20225;-85
2022/09/08 07:29:59;;;;;;;7.22;3.33;;;17.80;81.60;;;;;;5057191;28;20317;-85
2022/09/08 07:32:52;;;;;;;9.15;2.95;;;18.00;80.30;;;;;;5059912;28;20776;-86
2022/09/08 07:36:14;;;;;;;7.00;3.00;;;18.10;81.10;;;;;;5063453;28;20301;-87
2022/09/08 07:39:11;;;;;;;4.82;2.58;;;18.30;79.20;;;;;;5060010;28;20218;-86
2022/09/08 07:42:02;;;;;;;6.90;2.70;;;18.60;81.20;;;;;;5062229;28;20223;-87
2022/09/08 07:44:58;;;;;;;5.70;2.90;;;18.60;76.00;;;;;;5056767;28;20231;-88
2022/09/08 07:47:58;;;;;;;7.30;2.55;;;18.80;75.00;;;;;;5057507;28;20244;-87
2022/09/08 07:50:56;;;;;;;9.63;2.90;;;19.00;74.10;;;;;;5081595;28;20220;-88
2022/09/08 07:53:58;;;;;;;6.55;3.15;;;19.30;76.10;;;;;;5058126;28;20366;-88
2022/09/08 07:56:54;;;;;;;9.88;3.25;;;19.60;74.30;;;;;;5082812;28;20227;-87
2022/09/08 08:00:10;;;;;;;9.13;2.90;;;20.00;71.50;;;;;;5060599;28;20307;-87
2022/09/08 08:03:20;;;;;;;5.10;2.60;;;20.00;69.60;;;;;;5058152;28;20236;-87
2022/09/08 08:06:14;;;;;;;7.28;2.78;;;20.20;68.80;;;;;;5063503;28;20212;-87
2022/09/08 08:09:18;;;;;;;5.65;2.67;;;20.20;67.50;;;;;;5060846;28;20216;-89
2022/09/08 08:12:17;;;;;;;9.27;2.92;;;20.40;67.70;;;;;;5062788;28;20222;-88
2022/09/08 08:15:15;;;;;;;5.85;2.33;;;20.50;66.50;;;;;;5059495;28;20217;-88
2022/09/08 08:18:13;;;;;;;4.40;2.47;;;20.60;66.30;;;;;;5054121;28;20263;-87
2022/09/08 08:21:08;;;;;;;7.85;2.50;;;21.20;65.00;;;;;;5077756;28;20299;-88
2022/09/08 08:24:13;;;;;;;6.03;2.65;;;21.60;65.90;;;;;;5053234;28;20235;-87
2022/09/08 08:27:09;;;;;;;5.25;2.50;;;21.80;62.70;;;;;;5053296;28;20220;-87
2022/09/08 08:30:17;;;;;;;5.07;2.60;;;21.90;62.00;;;;;;5058007;28;20228;-87
2022/09/08 08:33:15;;;;;;;6.03;2.65;;;22.90;62.70;;;;;;5058057;28;20243;-87
2022/09/08 08:36:07;;;;;;;7.38;2.78;;;23.20;60.60;;;;;;5065537;28;20258;-87
2022/09/08 08:39:09;;;;;;;5.10;3.00;;;23.00;59.50;;;;;;5067096;28;20216;-87
2022/09/08 08:42:24;;;;;;;5.15;2.70;;;23.30;57.80;;;;;;5082981;28;20235;-88
2022/09/08 08:45:26;;;;;;;4.78;2.63;;;23.00;59.20;;;;;;5061441;28;20706;-88
2022/09/08 08:48:37;;;;;;;7.78;2.80;;;23.20;58.30;;;;;;5058115;28;20315;-87
2022/09/08 08:51:58;;;;;;;7.85;2.70;;;23.60;57.40;;;;;;5055411;28;20221;-87
2022/09/08 08:55:01;;;;;;;3.00;2.50;;;23.70;57.30;;;;;;5053692;28;20239;-87
2022/09/08 08:58:01;;;;;;;6.05;2.72;;;23.40;57.30;;;;;;5073455;28;20331;-88
2022/09/08 09:01:10;;;;;;;8.43;2.60;;;23.80;56.70;;;;;;5057331;28;20571;-88
2022/09/08 09:04:23;;;;;;;6.75;2.85;;;24.30;57.60;;;;;;5061507;28;20220;-87
2022/09/08 09:07:51;;;;;;;7.07;2.70;;;24.60;58.80;;;;;;5052917;28;20224;-87
2022/09/08 09:10:55;;;;;;;4.85;2.30;;;24.70;54.50;;;;;;5060271;28;20228;-87
2022/09/08 09:14:11;;;;;;;5.78;2.45;;;24.50;54.40;;;;;;5076771;28;20231;-86
2022/09/08 09:17:18;;;;;;;4.07;2.70;;;23.50;54.40;;;;;;5062721;28;20236;-88
2022/09/08 09:20:38;;;;;;;4.35;2.50;;;22.70;58.50;;;;;;5079981;28;20215;-87
2022/09/08 09:23:40;;;;;;;4.70;2.85;;;21.80;57.80;;;;;;5077849;28;20225;-88
2022/09/08 09:26:33;;;;;;;4.60;2.65;;;21.60;59.90;;;;;;5085880;28;20224;-86
2022/09/08 09:29:23;;;;;;;4.25;2.40;;;21.30;60.80;;;;;;5062823;28;20240;-85
2022/09/08 09:32:49;;;;;;;5.28;2.65;;;20.70;60.70;;;;;;5062771;28;20235;-85
2022/09/08 09:36:15;;;;;;;4.60;2.50;;;20.70;61.40;;;;;;5064495;28;20251;-85
2022/09/08 09:39:42;;;;;;;5.88;2.67;;;20.80;60.50;;;;;;5069932;28;20304;-85
2022/09/08 09:43:09;;;;;;;5.13;2.55;;;20.80;61.00;;;;;;5057485;28;20223;-85
2022/09/08 09:46:20;;;;;;;8.70;2.97;;;20.80;60.00;;;;;;5059780;28;20224;-83
2022/09/08 09:49:45;;;;;;;6.22;2.95;;;20.60;60.50;;;;;;5082277;28;20367;-83
2022/09/08 09:52:44;;;;;;;5.80;3.00;;;20.70;59.80;;;;;;5076481;28;20231;-84
2022/09/08 09:55:55;;;;;;;5.75;2.60;;;20.80;61.10;;;;;;5068532;28;20336;-84
2022/09/08 09:59:22;;;;;;;5.03;2.70;;;20.60;60.60;;;;;;5054448;28;20710;-85
2022/09/08 10:02:47;;;;;;;6.30;2.63;;;20.60;60.50;;;;;;5059798;28;20309;-85
2022/09/08 10:06:17;;;;;;;3.38;2.38;;;20.50;60.20;;;;;;5057056;28;20308;-83
2022/09/08 10:09:47;;;;;;;5.05;2.40;;;20.60;60.50;;;;;;5082966;28;20806;-85
2022/09/08 10:13:13;;;;;;;5.63;2.45;;;20.50;60.40;;;;;;5063203;28;20279;-84
2022/09/08 10:16:49;;;;;;;6.53;2.50;;;20.40;59.90;;;;;;5076780;28;20215;-85
2022/09/08 10:20:04;;;;;;;4.63;2.40;;;20.60;60.30;;;;;;5058510;28;20291;-85
2022/09/08 10:23:59;;;;;;;7.97;2.60;;;20.80;60.00;;;;;;5080573;28;20733;-84
2022/09/08 10:27:33;;;;;;;8.32;2.40;;;20.90;59.50;;;;;;5057403;28;20242;-85
2022/09/08 10:30:56;;;;;;;4.43;2.40;;;21.00;60.00;;;;;;5059403;28;20226;-84
2022/09/08 10:34:13;;;;;;;4.60;2.97;;;21.10;58.70;;;;;;5059075;28;20570;-85
2022/09/08 10:37:04;;;;;;;6.20;2.53;;;21.30;57.70;;;;;;5071113;28;20307;-84
2022/09/08 10:40:15;;;;;;;4.10;2.40;;;21.10;58.00;;;;;;5058827;28;20304;-86
2022/09/08 10:43:30;;;;;;;4.65;2.45;;;21.10;58.80;;;;;;5058320;28;20272;-85
2022/09/08 10:46:42;;;;;;;5.60;2.50;;;21.00;57.50;;;;;;5068176;28;20403;-85
2022/09/08 10:50:27;;;;;;;5.35;2.10;;;20.90;58.50;;;;;;5057229;28;20224;-84
2022/09/08 10:53:52;;;;;;;5.80;2.70;;;21.00;58.40;;;;;;5005681;28;20230;-84
2022/09/08 10:56:42;;;;;;;5.47;2.22;;;21.10;58.30;;;;;;5065689;28;20331;-84
2022/09/08 10:59:59;;;;;;;5.68;2.35;;;21.00;57.40;;;;;;5061571;28;20231;-83
2022/09/08 11:03:09;;;;;;;3.70;2.00;;;21.10;58.20;;;;;;5081775;28;21068;-83
2022/09/08 11:06:04;;;;;;;6.75;2.22;;;21.00;58.40;;;;;;5055365;28;20290;-83
2022/09/08 11:09:26;;;;;;;6.45;2.10;;;21.00;59.40;;;;;;5083936;27;20231;-86
2022/09/08 11:12:36;;;;;;;4.43;2.10;;;20.90;57.30;;;;;;5054761;28;20359;-82
2022/09/08 11:15:47;;;;;;;4.82;2.25;;;20.90;57.90;;;;;;5074582;28;20302;-86
2022/09/08 11:18:43;;;;;;;4.78;1.90;;;20.90;57.20;;;;;;5065296;28;20323;-83
2022/09/08 11:21:37;;;;;;;5.13;2.00;;;20.90;57.60;;;;;;5064092;28;20234;-84
2022/09/08 11:24:34;;;;;;;8.18;2.17;;;21.00;57.30;;;;;;5086223;28;20224;-85
2022/09/08 11:27:34;;;;;;;4.70;2.10;;;21.10;58.50;;;;;;5058127;28;20290;-85
2022/09/08 11:30:27;;;;;;;3.72;2.17;;;21.10;57.90;;;;;;5087665;28;20228;-84
2022/09/08 11:33:38;;;;;;;4.13;1.92;;;20.90;57.90;;;;;;5059368;28;20220;-80
2022/09/08 11:36:45;;;;;;;3.35;1.90;;;21.00;58.10;;;;;;5049438;28;20754;-80
2022/09/08 11:39:50;;;;;;;6.03;2.28;;;21.00;57.50;;;;;;5056243;28;20323;-79
2022/09/08 11:43:13;;;;;;;9.68;1.92;;;20.90;58.50;;;;;;5058776;28;20220;-80
2022/09/08 11:46:28;;;;;;;4.55;1.95;;;21.00;57.30;;;;;;5053369;28;20236;-79
2022/09/08 11:49:39;;;;;;;8.77;2.17;;;21.00;58.80;;;;;;5057506;28;20224;-80
2022/09/08 11:53:23;;;;;;;8.35;2.28;;;21.10;57.80;;;;;;5053169;28;20319;-80
2022/09/08 11:56:54;;;;;;;4.63;2.15;;;21.00;58.40;;;;;;5056735;28;20306;-81
2022/09/08 12:00:04;;;;;;;4.40;1.70;;;21.10;58.30;;;;;;5052966;28;20372;-80
2022/09/08 12:03:37;;;;;;;6.13;2.00;;;21.10;57.50;;;;;;5055374;28;20590;-80
2022/09/08 12:06:53;;;;;;;4.22;2.05;;;21.00;58.00;;;;;;5065691;28;20232;-80
2022/09/08 12:10:13;;;;;;;4.80;2.03;;;21.20;57.60;;;;;;5068236;28;20758;-79
2022/09/08 12:13:14;;;;;;;7.35;2.13;;;21.10;57.80;;;;;;5067840;28;20588;-80
2022/09/08 12:16:29;;;;;;;6.25;1.95;;;21.20;57.50;;;;;;5060380;28;20221;-81
2022/09/08 12:19:50;;;;;;;4.53;2.10;;;21.10;57.00;;;;;;5060503;28;20220;-80
2022/09/08 12:22:56;;;;;;;6.43;2.00;;;21.20;57.90;;;;;;5061865;28;20244;-80
2022/09/08 12:25:58;;;;;;;2.90;1.80;;;21.20;57.50;;;;;;5054572;28;21054;-80
2022/09/08 12:29:20;;;;;;;4.10;1.80;;;21.30;58.00;;;;;;5072825;28;20224;-81
2022/09/08 12:32:41;;;;;;;3.20;1.70;;;21.20;56.90;;;;;;5057649;28;20315;-81
2022/09/08 12:35:31;;;;;;;13.23;1.88;;;21.10;57.50;;;;;;5044598;28;20291;-80
2022/09/08 12:38:47;;;;;;;5.22;2.10;;;21.10;56.80;;;;;;5071047;28;20703;-81
2022/09/08 12:41:48;;;;;;;5.75;1.65;;;21.10;57.00;;;;;;5058070;28;20239;-85
2022/09/08 12:44:55;;;;;;;6.80;1.70;;;21.20;56.00;;;;;;5063617;28;20232;-84
2022/09/08 12:47:54;;;;;;;7.57;1.95;;;21.20;55.90;;;;;;5085219;28;20228;-85
2022/09/08 12:50:49;;;;;;;8.13;2.10;;;21.10;56.30;;;;;;5061700;28;20373;-85
2022/09/08 12:54:03;;;;;;;5.13;1.77;;;21.10;57.00;;;;;;5061987;28;20702;-85
2022/09/08 12:57:15;;;;;;;3.90;1.77;;;21.10;56.30;;;;;;5067578;28;20355;-85
2022/09/08 13:00:09;;;;;;;6.93;1.85;;;21.30;55.90;;;;;;5062845;28;20297;-85
2022/09/08 13:03:19;;;;;;;3.05;1.90;;;21.30;55.80;;;;;;5056396;28;20656;-86
2022/09/08 13:06:34;;;;;;;9.02;1.88;;;21.20;56.20;;;;;;5059934;28;20339;-85
2022/09/08 13:09:29;;;;;;;5.55;1.60;;;21.20;56.00;;;;;;5053418;28;20344;-85
2022/09/08 13:12:46;;;;;;;6.25;2.08;;;21.20;56.10;;;;;;5055087;28;20791;-85
2022/09/08 13:15:39;;;;;;;3.13;1.58;;;21.20;56.30;;;;;;5055544;28;20232;-85
2022/09/08 13:18:31;;;;;;;3.42;1.67;;;21.30;55.20;;;;;;5086841;28;20221;-85
2022/09/08 13:21:31;;;;;;;4.53;1.90;;;21.40;53.60;;;;;;5080290;28;20236;-86
2022/09/08 13:24:30;;;;;;;4.55;1.80;;;21.50;53.70;;;;;;5060672;28;20299;-85
2022/09/08 13:27:30;;;;;;;7.03;2.13;;;21.60;53.20;;;;;;5061960;28;20227;-85
2022/09/08 13:30:21;;;;;;;3.20;1.42;;;21.50;52.80;;;;;;5056550;28;20639;-85
2022/09/08 13:33:41;;;;;;;1.80;1.70;;;21.60;52.00;;;;;;5059420;28;20281;-85
2022/09/08 13:36:44;;;;;;;6.85;1.90;;;21.50;52.40;;;;;;5071028;28;20235;-84
2022/09/08 13:39:58;;;;;;;8.20;2.03;;;21.50;52.50;;;;;;5065799;28;20212;-85
2022/09/08 13:43:12;;;;;;;5.28;1.88;;;21.60;53.20;;;;;;5059964;28;20227;-84
2022/09/08 13:46:13;;;;;;;4.97;1.90;;;21.50;53.10;;;;;;5055078;28;20319;-85
2022/09/08 13:49:23;;;;;;;5.50;1.90;;;21.40;53.90;;;;;;5069928;28;20220;-87
2022/09/08 13:52:33;;;;;;;6.30;1.80;;;21.30;54.40;;;;;;5063225;28;20228;-85
2022/09/08 13:55:35;;;;;;;4.63;2.03;;;21.40;54.30;;;;;;5058518;28;20227;-85
2022/09/08 13:58:36;;;;;;;5.57;2.10;;;21.40;54.00;;;;;;5055288;28;20228;-85
2022/09/08 14:01:38;;;;;;;4.25;1.90;;;21.30;53.80;;;;;;5050645;28;20679;-85
2022/09/08 14:04:32;;;;;;;6.05;2.45;;;21.40;54.40;;;;;;5058743;28;20306;-85
2022/09/08 14:07:25;;;;;;;2.88;1.98;;;21.40;54.30;;;;;;5055745;28;20305;-83
2022/09/08 14:10:18;;;;;;;4.30;2.15;;;21.20;54.40;;;;;;5062295;28;20370;-83
2022/09/08 14:13:32;;;;;;;6.07;2.30;;;21.20;54.60;;;;;;5072390;28;20228;-85
2022/09/08 14:16:29;;;;;;;3.50;2.10;;;21.20;55.20;;;;;;5053508;28;20302;-82
2022/09/08 14:19:37;;;;;;;5.90;2.30;;;21.20;55.00;;;;;;5061685;28;20207;-84
2022/09/08 14:22:43;;;;;;;6.32;2.22;;;21.20;55.30;;;;;;5058465;28;20271;-83
2022/09/08 14:25:34;;;;;;;5.00;2.20;;;21.10;55.90;;;;;;5055963;28;20219;-83
2022/09/08 14:28:31;;;;;;;4.88;2.35;;;21.10;56.30;;;;;;5080958;28;20304;-84
2022/09/08 14:31:27;;;;;;;6.88;2.60;;;21.10;56.30;;;;;;5061491;28;20762;-83
2022/09/08 14:34:27;;;;;;;7.07;2.47;;;21.20;56.00;;;;;;5060098;28;20228;-84
2022/09/08 14:37:23;;;;;;;7.35;2.78;;;21.20;55.30;;;;;;5057441;28;20228;-84
2022/09/08 14:40:19;;;;;;;11.18;2.60;;;21.20;55.50;;;;;;5060050;28;20243;-84
2022/09/08 14:43:35;;;;;;;7.05;2.50;;;21.10;56.00;;;;;;5083565;28;20329;-84
2022/09/08 14:46:41;;;;;;;5.53;2.40;;;21.10;55.70;;;;;;5084728;28;20227;-83
2022/09/08 14:49:49;;;;;;;3.72;2.40;;;21.10;55.60;;;;;;5047807;28;20707;-83
2022/09/08 14:53:01;;;;;;;7.10;2.55;;;21.10;56.30;;;;;;5060741;28;20233;-84
2022/09/08 14:55:58;;;;;;;4.57;2.20;;;21.10;56.00;;;;;;5059173;28;20231;-84
2022/09/08 14:58:55;;;;;;;5.70;2.08;;;21.10;55.70;;;;;;5059858;28;20266;-84
2022/09/08 15:01:49;;;;;;;7.63;2.33;;;21.10;56.00;;;;;;5055179;28;20350;-83
2022/09/08 15:04:41;;;;;;;4.50;2.22;;;21.10;56.10;;;;;;5084967;27;20402;-82
2022/09/08 15:07:30;;;;;;;6.63;2.45;;;21.00;56.60;;;;;;5062913;28;20590;-84
2022/09/08 15:10:27;;;;;;;4.40;2.10;;;21.10;56.30;;;;;;5059688;28;20655;-83
2022/09/08 15:13:18;;;;;;;7.53;2.40;;;21.10;56.00;;;;;;5060093;28;20239;-83
2022/09/08 15:16:24;;;;;;;7.88;2.58;;;21.10;56.20;;;;;;5060972;28;20304;-84
2022/09/08 15:19:22;;;;;;;5.38;2.70;;;21.10;56.10;;;;;;5057689;28;20220;-83
2022/09/08 15:22:28;;;;;;;6.00;2.40;;;21.00;56.60;;;;;;5051016;28;20299;-83
2022/09/08 15:25:25;;;;;;;5.50;2.25;;;21.10;56.10;;;;;;5053953;28;20243;-83
2022/09/08 15:28:26;;;;;;;6.90;2.50;;;21.00;56.10;;;;;;5057382;28;20216;-84
2022/09/08 15:31:28;;;;;;;7.57;2.15;;;21.10;56.10;;;;;;5063305;28;20310;-84
2022/09/08 15:34:32;;;;;;;6.55;2.63;;;21.10;56.00;;;;;;5079908;28;20216;-82
2022/09/08 15:37:30;;;;;;;4.30;2.13;;;21.00;56.10;;;;;;5059954;28;20282;-89
2022/09/08 15:40:23;;;;;;;7.18;2.15;;;21.00;56.70;;;;;;5058342;28;20236;-85